Time;durP1;ratioP1;P1;durP2;ratioP2;P2;SDS_P1;SDS_P2;PMS_P1;PMS_P2;Temp;Humidity;BMP_temperature;BMP_pressure;BME280_temperature;BME280_humidity;BME280_pressure;Samples;Min_cycle;Max_cycle;Signal;HPM_P1;HPM_P2
2021/06/17 00:01:39;;;;;;;10.07;6.63;;;21.60;99.90;;;;;;3605903;39;20052;-84
2021/06/17 00:04:04;;;;;;;19.30;5.97;;;21.70;99.90;;;;;;3606004;39;20060;-84
2021/06/17 00:06:30;;;;;;;8.88;5.85;;;21.80;99.90;;;;;;3606485;39;20443;-84
2021/06/17 00:08:56;;;;;;;8.77;6.03;;;21.70;99.90;;;;;;3605723;39;20051;-85
2021/06/17 00:11:21;;;;;;;9.43;6.50;;;21.70;99.90;;;;;;3596992;39;20372;-83
2021/06/17 00:13:47;;;;;;;10.68;6.45;;;21.60;99.90;;;;;;3608252;39;20044;-84
2021/06/17 00:16:13;;;;;;;8.40;6.18;;;21.60;99.90;;;;;;3610032;39;20048;-84
2021/06/17 00:18:38;;;;;;;9.55;6.05;;;21.50;99.90;;;;;;3610476;39;20046;-86
2021/06/17 00:21:04;;;;;;;9.93;6.97;;;21.40;99.90;;;;;;3598861;39;20067;-83
2021/06/17 00:23:33;;;;;;;11.15;6.70;;;21.40;99.90;;;;;;3607617;39;20048;-85
2021/06/17 00:25:58;;;;;;;11.43;6.45;;;21.30;99.90;;;;;;3606131;39;20094;-84
2021/06/17 00:28:25;;;;;;;9.68;6.05;;;21.40;99.90;;;;;;3606250;39;20124;-85
2021/06/17 00:30:52;;;;;;;10.77;6.78;;;21.40;99.90;;;;;;3605941;39;20087;-85
2021/06/17 00:33:18;;;;;;;9.35;6.63;;;21.40;99.90;;;;;;3606309;39;20043;-85
2021/06/17 00:35:43;;;;;;;7.60;6.82;;;21.40;99.90;;;;;;3606322;39;20051;-85
2021/06/17 00:38:09;;;;;;;13.20;7.40;;;21.40;99.90;;;;;;3606257;39;20172;-85
2021/06/17 00:40:35;;;;;;;11.73;6.90;;;21.40;99.90;;;;;;3596329;39;20051;-85
2021/06/17 00:43:02;;;;;;;10.90;7.35;;;21.40;99.90;;;;;;3606214;39;20406;-85
2021/06/17 00:45:34;;;;;;;10.80;7.70;;;21.40;99.90;;;;;;3605760;39;20051;-84
2021/06/17 00:48:01;;;;;;;12.40;7.03;;;21.40;99.90;;;;;;3605740;39;20056;-85
2021/06/17 00:50:37;;;;;;;12.30;8.48;;;21.20;99.90;;;;;;3605665;39;20051;-85
2021/06/17 00:53:10;;;;;;;11.00;8.55;;;21.30;99.90;;;;;;3605789;39;20051;-85
2021/06/17 00:55:42;;;;;;;9.32;7.57;;;21.10;99.90;;;;;;3596489;39;20047;-87
2021/06/17 00:58:08;;;;;;;9.00;7.57;;;21.10;99.90;;;;;;3605907;39;20059;-84
2021/06/17 01:00:34;;;;;;;13.63;7.60;;;21.10;99.90;;;;;;3606133;39;20047;-85
2021/06/17 01:03:00;;;;;;;11.18;8.52;;;21.10;99.90;;;;;;3605421;39;20390;-83
2021/06/17 01:05:27;;;;;;;13.13;7.30;;;21.20;99.90;;;;;;3596285;39;20047;-84
2021/06/17 01:08:29;;;;;;;13.20;8.73;;;21.20;99.90;;;;;;3605739;39;20047;-84
2021/06/17 01:11:14;;;;;;;11.73;8.75;;;21.10;99.90;;;;;;3595074;39;20136;-84
2021/06/17 01:14:04;;;;;;;14.85;8.88;;;21.10;99.90;;;;;;3605771;39;20095;-85
2021/06/17 01:16:40;;;;;;;10.05;8.50;;;21.10;99.90;;;;;;3605676;39;20054;-83
2021/06/17 01:19:15;;;;;;;16.10;9.75;;;21.10;99.90;;;;;;3606296;39;20043;-85
2021/06/17 01:21:58;;;;;;;12.10;8.73;;;21.00;99.90;;;;;;3606443;39;20055;-85
2021/06/17 01:25:04;;;;;;;10.50;9.05;;;20.90;99.90;;;;;;3604483;39;20363;-84
2021/06/17 01:27:48;;;;;;;13.98;9.35;;;21.00;99.90;;;;;;3605609;39;20048;-84
2021/06/17 01:30:16;;;;;;;14.90;9.63;;;21.00;99.90;;;;;;3602936;39;20043;-85
2021/06/17 01:32:50;;;;;;;11.30;8.75;;;20.90;99.90;;;;;;3605375;39;20055;-84
2021/06/17 01:35:20;;;;;;;10.85;9.07;;;20.80;99.90;;;;;;3596479;39;20074;-84
2021/06/17 01:37:48;;;;;;;14.63;9.30;;;20.80;99.90;;;;;;3605937;39;20046;-84
2021/06/17 01:40:15;;;;;;;11.07;8.98;;;20.90;99.90;;;;;;3606199;39;20054;-85
2021/06/17 01:42:43;;;;;;;11.52;9.80;;;20.90;99.90;;;;;;3605596;39;20132;-83
2021/06/17 01:45:10;;;;;;;15.95;9.93;;;20.80;99.90;;;;;;3606234;39;20051;-84
2021/06/17 01:47:37;;;;;;;10.85;9.27;;;20.90;99.90;;;;;;3605636;39;20074;-87
2021/06/17 01:50:03;;;;;;;16.63;10.40;;;20.90;99.90;;;;;;3596911;39;20348;-83
2021/06/17 01:52:32;;;;;;;15.00;10.15;;;20.90;99.90;;;;;;3605855;39;20036;-85
2021/06/17 01:55:00;;;;;;;14.57;10.23;;;20.80;99.90;;;;;;3605941;39;20084;-84
2021/06/17 01:57:27;;;;;;;14.52;9.80;;;20.80;99.90;;;;;;3605850;39;20055;-83
2021/06/17 01:59:54;;;;;;;14.05;11.00;;;20.80;99.90;;;;;;3606506;39;20058;-83
2021/06/17 02:02:20;;;;;;;17.17;11.30;;;20.80;99.90;;;;;;3605211;39;20172;-84
2021/06/17 02:04:51;;;;;;;16.02;10.73;;;20.70;99.90;;;;;;3605467;39;20040;-84
2021/06/17 02:07:20;;;;;;;11.95;10.65;;;20.80;99.90;;;;;;3605264;39;20043;-84
2021/06/17 02:09:49;;;;;;;14.85;10.80;;;20.70;99.90;;;;;;3605790;39;20070;-84
2021/06/17 02:12:14;;;;;;;13.05;11.27;;;20.80;99.90;;;;;;3605715;39;20067;-84
2021/06/17 02:14:42;;;;;;;15.18;11.80;;;20.80;99.90;;;;;;3606153;39;20435;-85
2021/06/17 02:17:07;;;;;;;17.25;11.38;;;20.70;99.90;;;;;;3605854;39;20087;-83
2021/06/17 02:19:36;;;;;;;13.95;10.90;;;20.70;99.90;;;;;;3605742;39;20055;-83
2021/06/17 02:22:03;;;;;;;17.13;11.40;;;20.80;99.90;;;;;;3606258;39;20293;-83
2021/06/17 02:24:33;;;;;;;16.73;11.30;;;20.80;99.90;;;;;;3605448;39;20036;-84
2021/06/17 02:27:10;;;;;;;20.65;11.45;;;20.70;99.90;;;;;;3606149;39;20062;-83
2021/06/17 02:29:47;;;;;;;18.90;12.73;;;20.70;99.90;;;;;;3606517;39;20048;-84
2021/06/17 02:32:17;;;;;;;14.10;11.45;;;20.70;99.90;;;;;;3606063;39;20504;-83
2021/06/17 02:34:44;;;;;;;13.95;12.00;;;20.70;99.90;;;;;;3606779;39;20083;-84
2021/06/17 02:37:10;;;;;;;13.98;11.52;;;20.70;99.90;;;;;;3605665;39;20043;-83
2021/06/17 02:39:37;;;;;;;15.48;12.02;;;20.70;99.90;;;;;;3596424;39;20452;-84
2021/06/17 02:42:04;;;;;;;14.50;11.85;;;20.60;99.90;;;;;;3607141;39;20093;-83
2021/06/17 02:44:32;;;;;;;17.15;12.15;;;20.70;99.90;;;;;;3606458;39;20577;-84
2021/06/17 02:46:58;;;;;;;14.57;12.60;;;20.70;99.90;;;;;;3606388;39;20516;-83
2021/06/17 02:49:23;;;;;;;24.98;11.95;;;20.60;99.90;;;;;;3606332;39;20055;-84
2021/06/17 02:51:49;;;;;;;16.70;12.23;;;20.60;99.90;;;;;;3607589;39;20359;-84
2021/06/17 02:54:19;;;;;;;18.67;12.07;;;20.60;99.90;;;;;;3608674;39;20047;-84
2021/06/17 02:57:00;;;;;;;17.23;13.57;;;20.60;99.90;;;;;;3607674;39;20057;-84
2021/06/17 02:59:33;;;;;;;13.63;12.30;;;20.50;99.90;;;;;;3607442;39;20063;-83
2021/06/17 03:02:05;;;;;;;;;;;20.50;99.90;;;;;;3606827;39;20047;-85
2021/06/17 03:04:54;;;;;;;18.23;13.38;;;20.50;99.90;;;;;;3606215;39;20282;-84
2021/06/17 03:07:33;;;;;;;16.50;12.05;;;20.40;99.90;;;;;;3606406;39;20083;-83
2021/06/17 03:10:06;;;;;;;17.02;13.80;;;20.40;99.90;;;;;;3606482;39;20047;-84
2021/06/17 03:12:33;;;;;;;18.30;14.32;;;20.40;99.90;;;;;;3606203;39;20047;-85
2021/06/17 03:15:02;;;;;;;16.52;13.77;;;20.40;99.90;;;;;;3606690;39;20406;-84
2021/06/17 03:17:30;;;;;;;19.88;14.27;;;20.40;99.90;;;;;;3606110;39;20135;-83
2021/06/17 03:19:58;;;;;;;21.52;14.02;;;20.30;99.90;;;;;;3606374;39;20306;-83
2021/06/17 03:22:25;;;;;;;18.90;14.00;;;20.30;99.90;;;;;;3606642;39;20071;-84
2021/06/17 03:24:55;;;;;;;16.58;14.05;;;20.40;99.90;;;;;;3605937;39;20054;-84
2021/06/17 03:27:23;;;;;;;19.40;15.13;;;20.40;99.90;;;;;;3606502;39;20073;-84
2021/06/17 03:29:51;;;;;;;18.13;13.55;;;20.40;99.90;;;;;;3606056;39;20040;-84
2021/06/17 03:32:19;;;;;;;16.70;14.45;;;20.50;99.90;;;;;;3606210;39;20097;-84
2021/06/17 03:34:48;;;;;;;17.15;14.88;;;20.50;99.90;;;;;;3606038;39;20058;-84
2021/06/17 03:37:15;;;;;;;16.33;14.43;;;20.40;99.90;;;;;;3606661;39;20391;-84
2021/06/17 03:39:43;;;;;;;19.38;15.02;;;20.50;99.90;;;;;;3606519;39;20409;-85
2021/06/17 03:42:11;;;;;;;17.10;15.35;;;20.50;99.90;;;;;;3596919;39;20383;-84
2021/06/17 03:44:38;;;;;;;17.20;15.50;;;20.50;99.90;;;;;;3596478;40;20080;-84
2021/06/17 03:47:05;;;;;;;18.02;16.13;;;20.60;99.90;;;;;;3605250;39;20379;-85
2021/06/17 03:49:31;;;;;;;18.27;14.90;;;20.70;99.90;;;;;;3605998;39;20051;-84
2021/06/17 03:51:58;;;;;;;16.27;14.55;;;20.90;99.90;;;;;;3606732;39;20047;-82
2021/06/17 03:54:29;;;;;;;18.60;16.10;;;21.20;99.90;;;;;;3596804;39;20059;-84
2021/06/17 03:57:01;;;;;;;17.42;14.32;;;21.20;99.90;;;;;;3606412;39;20401;-84
2021/06/17 03:59:31;;;;;;;17.52;15.57;;;21.40;99.90;;;;;;3606212;39;20325;-84
2021/06/17 04:01:59;;;;;;;20.67;15.48;;;21.50;99.90;;;;;;3605902;39;20051;-83
2021/06/17 04:04:25;;;;;;;19.55;14.82;;;21.50;99.90;;;;;;3606470;39;20073;-83
2021/06/17 04:06:54;;;;;;;16.35;14.70;;;21.70;99.90;;;;;;3606251;39;20137;-83
2021/06/17 04:09:32;;;;;;;18.73;15.50;;;21.70;99.90;;;;;;3605729;39;20333;-84
2021/06/17 04:12:05;;;;;;;17.48;14.43;;;21.80;99.90;;;;;;3597711;39;20040;-84
2021/06/17 04:14:35;;;;;;;18.05;14.90;;;21.90;99.90;;;;;;3604598;39;20337;-84
2021/06/17 04:17:01;;;;;;;16.55;14.57;;;21.90;99.90;;;;;;3605734;39;20051;-83
2021/06/17 04:19:28;;;;;;;16.17;14.60;;;22.00;99.90;;;;;;3606274;39;20489;-83
2021/06/17 04:21:59;;;;;;;16.05;14.25;;;22.00;99.90;;;;;;3596959;39;20075;-84
2021/06/17 04:24:27;;;;;;;16.15;14.73;;;22.10;99.90;;;;;;3596565;39;20376;-83
2021/06/17 04:26:54;;;;;;;17.17;15.32;;;22.10;99.90;;;;;;3606717;39;20043;-83
2021/06/17 04:29:21;;;;;;;18.27;15.15;;;22.10;99.90;;;;;;3606126;39;20074;-82
2021/06/17 04:31:52;;;;;;;16.25;14.52;;;22.10;99.90;;;;;;3605846;39;20071;-85
2021/06/17 04:34:19;;;;;;;19.05;14.40;;;22.10;99.90;;;;;;3606101;39;20055;-83
2021/06/17 04:36:46;;;;;;;18.33;15.13;;;22.20;99.90;;;;;;3596310;39;20128;-82
2021/06/17 04:39:13;;;;;;;18.85;14.73;;;22.00;99.90;;;;;;3606459;39;20051;-83
2021/06/17 04:41:39;;;;;;;17.10;15.40;;;22.00;99.90;;;;;;3606123;39;20333;-84
2021/06/17 04:44:05;;;;;;;18.65;15.82;;;22.00;99.90;;;;;;3605429;39;20132;-83
2021/06/17 04:46:33;;;;;;;21.98;16.52;;;21.90;99.90;;;;;;3605541;39;20052;-84
2021/06/17 04:49:00;;;;;;;17.58;15.63;;;21.90;99.90;;;;;;3598536;39;20048;-83
2021/06/17 04:51:27;;;;;;;25.98;18.25;;;22.10;99.90;;;;;;3604495;39;20047;-84
2021/06/17 04:53:55;;;;;;;22.48;20.15;;;22.10;99.90;;;;;;3605853;39;20075;-84
2021/06/17 04:56:20;;;;;;;20.83;17.63;;;22.00;99.90;;;;;;3605699;39;20052;-85
2021/06/17 04:58:49;;;;;;;22.15;16.88;;;22.00;99.90;;;;;;3605808;39;20050;-83
2021/06/17 05:01:17;;;;;;;17.35;15.55;;;22.10;99.90;;;;;;3605378;39;20393;-83
2021/06/17 05:03:44;;;;;;;18.92;15.68;;;22.30;99.90;;;;;;3605801;39;20036;-83
2021/06/17 05:06:11;;;;;;;17.27;14.00;;;22.50;99.90;;;;;;3605865;39;20051;-84
2021/06/17 05:11:21;;;;;;;17.10;15.27;;;23.10;99.90;;;;;;3605926;39;20078;-84
2021/06/17 05:13:47;;;;;;;20.42;16.42;;;23.20;99.90;;;;;;3596059;39;20051;-85
2021/06/17 05:16:12;;;;;;;18.52;15.10;;;23.20;99.90;;;;;;3596071;39;20050;-84
2021/06/17 05:18:40;;;;;;;17.08;13.45;;;23.20;99.90;;;;;;3605820;39;20076;-86
2021/06/17 05:21:07;;;;;;;19.55;14.23;;;23.70;99.90;;;;;;3604829;39;20142;-85
2021/06/17 05:23:36;;;;;;;18.25;14.80;;;23.90;99.90;;;;;;3604560;39;20321;-85
2021/06/17 05:26:02;;;;;;;16.13;13.98;;;24.00;99.90;;;;;;3602024;39;20059;-84
2021/06/17 05:28:29;;;;;;;16.65;13.82;;;24.30;99.90;;;;;;3598477;39;20140;-85
2021/06/17 05:30:59;;;;;;;15.50;13.75;;;24.30;99.90;;;;;;3602604;39;20044;-84
2021/06/17 05:33:25;;;;;;;18.23;14.60;;;24.60;99.90;;;;;;3601117;39;20453;-83
2021/06/17 05:35:51;;;;;;;17.45;13.50;;;24.70;99.90;;;;;;3603510;39;20325;-83
2021/06/17 05:38:19;;;;;;;18.05;14.80;;;24.80;99.90;;;;;;3598974;39;20055;-83
2021/06/17 05:40:45;;;;;;;16.90;13.07;;;24.90;99.90;;;;;;3594578;39;20094;-82
2021/06/17 05:43:13;;;;;;;16.00;13.02;;;25.10;99.90;;;;;;3596924;39;20129;-83
2021/06/17 05:45:41;;;;;;;15.73;13.95;;;25.30;99.90;;;;;;3598245;39;20048;-82
2021/06/17 05:48:08;;;;;;;15.55;13.85;;;24.90;99.90;;;;;;3595775;39;20063;-82
2021/06/17 05:50:34;;;;;;;16.10;14.57;;;24.80;99.90;;;;;;3602983;39;20074;-81
2021/06/17 05:52:59;;;;;;;19.73;14.88;;;24.60;99.90;;;;;;3600993;39;20047;-82
2021/06/17 05:55:26;;;;;;;17.58;14.98;;;24.50;99.90;;;;;;3596792;39;20640;-82
2021/06/17 05:57:52;;;;;;;17.15;15.35;;;24.50;99.90;;;;;;3603741;39;20036;-82
2021/06/17 06:00:18;;;;;;;17.60;15.27;;;24.50;99.90;;;;;;3605101;39;20083;-82
2021/06/17 06:02:44;;;;;;;20.30;17.75;;;24.60;99.90;;;;;;3604205;39;20397;-81
2021/06/17 06:05:10;;;;;;;20.15;16.77;;;24.60;99.90;;;;;;3602688;39;20055;-82
2021/06/17 06:07:38;;;;;;;19.58;17.17;;;24.80;99.90;;;;;;3602370;39;20104;-80
2021/06/17 06:10:05;;;;;;;18.92;16.75;;;24.90;99.90;;;;;;3600613;39;20442;-81
2021/06/17 06:12:31;;;;;;;28.27;17.38;;;25.10;99.90;;;;;;3599193;39;20478;-81
2021/06/17 06:14:57;;;;;;;19.08;16.00;;;25.10;99.90;;;;;;3599897;39;20059;-83
2021/06/17 06:17:22;;;;;;;18.33;16.40;;;25.40;99.90;;;;;;3595679;39;20059;-81
2021/06/17 06:19:48;;;;;;;26.42;16.63;;;25.50;99.90;;;;;;3601422;39;20059;-83
2021/06/17 06:22:14;;;;;;;19.08;16.10;;;25.30;99.90;;;;;;3598226;39;20167;-82
2021/06/17 06:24:40;;;;;;;20.88;16.52;;;25.30;99.90;;;;;;3606011;39;20488;-82
2021/06/17 06:27:06;;;;;;;17.50;15.73;;;25.40;99.90;;;;;;3597015;39;20051;-80
2021/06/17 06:29:33;;;;;;;20.45;16.10;;;25.70;99.90;;;;;;3606001;39;20036;-82
2021/06/17 06:31:59;;;;;;;24.63;18.30;;;25.80;99.90;;;;;;3607816;39;20040;-80
2021/06/17 06:34:25;;;;;;;18.52;16.58;;;25.60;99.90;;;;;;3597596;39;20043;-83
2021/06/17 06:36:51;;;;;;;18.40;16.55;;;25.80;99.90;;;;;;3601200;39;20063;-81
2021/06/17 06:39:18;;;;;;;19.10;16.38;;;25.40;99.90;;;;;;3604947;39;20062;-83
2021/06/17 06:41:45;;;;;;;16.73;14.68;;;25.60;99.90;;;;;;3599595;39;20076;-80
2021/06/17 06:44:12;;;;;;;17.77;15.95;;;25.70;99.90;;;;;;3593888;39;20128;-80
2021/06/17 06:46:39;;;;;;;19.95;16.88;;;25.50;99.90;;;;;;3601829;39;20060;-83
2021/06/17 06:49:05;;;;;;;17.67;15.93;;;25.70;99.90;;;;;;3602517;39;20052;-83
2021/06/17 06:51:31;;;;;;;15.52;13.13;;;25.50;99.90;;;;;;3597514;39;20088;-82
2021/06/17 06:53:57;;;;;;;17.92;15.98;;;25.90;99.90;;;;;;3602476;39;20080;-82
2021/06/17 06:56:23;;;;;;;17.25;15.23;;;25.70;99.90;;;;;;3603641;39;20051;-84
2021/06/17 06:58:48;;;;;;;20.40;16.63;;;26.20;99.90;;;;;;3605024;39;20052;-82
2021/06/17 07:01:15;;;;;;;20.50;17.25;;;25.90;99.90;;;;;;3603345;39;20043;-83
2021/06/17 07:03:42;;;;;;;19.05;17.15;;;26.00;99.90;;;;;;3595623;39;20375;-83
2021/06/17 07:06:07;;;;;;;18.10;16.20;;;25.80;99.90;;;;;;3600612;39;20318;-83
2021/06/17 07:08:33;;;;;;;22.25;17.80;;;26.10;99.90;;;;;;3595311;40;20054;-82
2021/06/17 07:10:59;;;;;;;18.90;16.70;;;25.90;99.90;;;;;;3595303;39;20066;-82
2021/06/17 07:13:27;;;;;;;18.85;15.40;;;26.10;99.90;;;;;;3594561;40;20051;-84
2021/06/17 07:15:52;;;;;;;20.98;15.75;;;26.10;99.90;;;;;;3597033;39;20426;-81
2021/06/17 07:18:18;;;;;;;20.10;15.35;;;26.80;99.90;;;;;;3594576;40;20059;-84
2021/06/17 07:20:44;;;;;;;21.58;16.92;;;26.80;99.90;;;;;;3598802;39;20390;-85
2021/06/17 07:23:10;;;;;;;23.80;16.25;;;26.60;99.90;;;;;;3592253;39;20051;-85
2021/06/17 07:25:36;;;;;;;22.65;16.27;;;26.70;99.90;;;;;;3601097;39;20124;-85
2021/06/17 07:28:05;;;;;;;20.48;14.60;;;26.50;99.90;;;;;;3605976;39;20187;-85
2021/06/17 07:30:31;;;;;;;18.17;16.27;;;26.90;99.90;;;;;;3599312;39;20152;-87
2021/06/17 07:32:57;;;;;;;17.73;16.08;;;26.80;99.90;;;;;;3597892;39;20077;-85
2021/06/17 07:35:23;;;;;;;17.98;16.10;;;26.70;99.90;;;;;;3605453;39;20051;-82
2021/06/17 07:37:50;;;;;;;18.90;17.23;;;27.20;99.90;;;;;;3598289;39;20051;-85
2021/06/17 07:40:17;;;;;;;22.80;17.35;;;26.90;99.90;;;;;;3600938;39;20132;-87
2021/06/17 07:42:43;;;;;;;21.05;17.70;;;27.00;99.90;;;;;;3607046;39;20413;-86
2021/06/17 07:45:10;;;;;;;17.73;15.93;;;27.10;99.90;;;;;;3594597;39;20125;-87
2021/06/17 07:47:36;;;;;;;18.10;16.40;;;27.20;99.90;;;;;;3597889;39;20055;-88
2021/06/17 07:50:04;;;;;;;17.92;16.17;;;27.70;99.90;;;;;;3594982;40;20047;-90
2021/06/17 07:52:30;;;;;;;18.90;17.10;;;27.60;99.90;;;;;;3607586;39;20531;-85
2021/06/17 07:54:56;;;;;;;17.55;15.50;;;27.40;99.90;;;;;;3587630;39;20317;-86
2021/06/17 07:57:21;;;;;;;18.95;16.95;;;27.70;99.90;;;;;;3604043;39;20066;-86
2021/06/17 07:59:47;;;;;;;19.83;14.90;;;27.60;99.90;;;;;;3591108;39;20105;-84
2021/06/17 08:02:13;;;;;;;17.33;15.52;;;27.70;99.90;;;;;;3598877;39;20359;-86
2021/06/17 08:04:39;;;;;;;25.17;16.10;;;27.60;99.90;;;;;;3606418;39;20101;-85
2021/06/17 08:07:05;;;;;;;16.00;14.02;;;27.80;99.90;;;;;;3598479;39;20048;-87
2021/06/17 08:09:32;;;;;;;16.73;14.45;;;27.90;99.90;;;;;;3596850;39;20436;-86
2021/06/17 08:11:57;;;;;;;18.23;15.52;;;27.80;99.90;;;;;;3606055;39;20055;-86
2021/06/17 08:14:28;;;;;;;16.67;14.82;;;27.30;99.90;;;;;;3605789;39;20051;-84
2021/06/17 08:16:56;;;;;;;19.45;14.05;;;27.30;99.90;;;;;;3606142;39;20055;-84
2021/06/17 08:19:32;;;;;;;18.83;15.07;;;27.50;99.90;;;;;;3606197;39;20047;-85
2021/06/17 08:22:17;;;;;;;18.63;13.57;;;27.40;99.90;;;;;;3605603;39;20052;-85
2021/06/17 08:24:44;;;;;;;17.60;14.93;;;28.00;99.90;;;;;;3604881;39;20040;-86
2021/06/17 08:27:10;;;;;;;17.73;14.40;;;27.80;99.90;;;;;;3594588;40;20063;-87
2021/06/17 08:29:36;;;;;;;19.33;13.80;;;28.50;99.90;;;;;;3593321;39;20056;-86
2021/06/17 08:32:03;;;;;;;18.33;13.35;;;28.80;99.90;;;;;;3605896;39;20131;-85
2021/06/17 08:34:29;;;;;;;16.52;14.82;;;29.00;99.90;;;;;;3595974;39;20073;-86
2021/06/17 08:36:55;;;;;;;14.40;12.20;;;28.90;99.90;;;;;;3596491;39;20056;-87
2021/06/17 08:39:21;;;;;;;16.70;12.23;;;29.30;99.90;;;;;;3602196;39;20087;-86
2021/06/17 08:41:47;;;;;;;14.85;11.55;;;28.80;99.90;;;;;;3607509;39;20048;-85
2021/06/17 08:44:13;;;;;;;14.32;12.70;;;29.00;99.90;;;;;;3602444;39;20052;-87
2021/06/17 08:46:39;;;;;;;12.30;9.25;;;29.00;99.90;;;;;;3595818;40;20052;-87
2021/06/17 08:49:05;;;;;;;13.75;9.85;;;29.70;99.90;;;;;;3597440;39;20048;-84
2021/06/17 08:51:32;;;;;;;11.52;9.98;;;29.10;99.60;;;;;;3606583;39;20051;-83
2021/06/17 08:53:59;;;;;;;12.35;10.32;;;29.30;99.90;;;;;;3593464;40;20059;-87
2021/06/17 08:56:25;;;;;;;13.18;10.73;;;29.10;99.90;;;;;;3595670;40;20060;-86
2021/06/17 08:58:56;;;;;;;10.88;9.75;;;29.20;99.90;;;;;;3599005;39;20127;-84
2021/06/17 09:01:22;;;;;;;10.73;9.27;;;30.00;99.90;;;;;;3592469;40;20055;-87
2021/06/17 09:03:48;;;;;;;13.05;9.27;;;30.50;99.70;;;;;;3600986;39;20044;-85
2021/06/17 09:06:17;;;;;;;13.48;11.73;;;30.00;99.60;;;;;;3595710;40;20048;-87
2021/06/17 09:08:55;;;;;;;12.20;10.57;;;29.80;99.90;;;;;;3596467;39;20414;-84
2021/06/17 09:11:21;;;;;;;13.60;10.20;;;30.20;99.70;;;;;;3595787;40;20126;-86
2021/06/17 09:13:47;;;;;;;13.32;10.07;;;30.40;99.90;;;;;;3595814;39;20507;-87
2021/06/17 09:16:26;;;;;;;11.55;9.38;;;30.60;98.50;;;;;;3588106;40;20055;-86
2021/06/17 09:18:53;;;;;;;11.35;9.20;;;30.70;97.70;;;;;;3601233;39;20180;-88
2021/06/17 09:21:19;;;;;;;11.05;8.20;;;30.80;97.20;;;;;;3586409;40;20044;-87
2021/06/17 09:23:47;;;;;;;7.85;6.90;;;31.10;97.10;;;;;;3599900;39;20059;-87
2021/06/17 09:26:19;;;;;;;9.40;7.22;;;31.30;95.60;;;;;;3580058;40;20060;-88
2021/06/17 09:29:03;;;;;;;10.65;6.43;;;30.40;95.10;;;;;;3597784;39;20044;-87
2021/06/17 09:31:42;;;;;;;7.60;6.50;;;30.60;95.90;;;;;;3580624;39;20369;-87
2021/06/17 09:34:14;;;;;;;10.82;6.95;;;30.20;95.50;;;;;;3592518;39;20084;-85
2021/06/17 09:36:41;;;;;;;6.43;5.30;;;30.70;95.70;;;;;;3598001;39;20078;-88
2021/06/17 09:39:15;;;;;;;10.85;6.40;;;30.90;94.70;;;;;;3600031;39;20286;-87
2021/06/17 09:41:50;;;;;;;8.57;6.30;;;30.30;95.00;;;;;;3614209;39;20402;-87
2021/06/17 09:44:36;;;;;;;9.23;5.57;;;30.30;93.80;;;;;;3604869;39;20047;-91
2021/06/17 09:47:22;;;;;;;7.40;6.40;;;30.00;93.80;;;;;;3591121;39;20032;-87
2021/06/17 09:49:48;;;;;;;6.53;5.78;;;30.00;94.00;;;;;;3613902;39;20044;-88
2021/06/17 09:52:20;;;;;;;11.98;6.50;;;30.30;94.40;;;;;;3600592;39;20464;-92
2021/06/17 09:54:47;;;;;;;9.98;6.20;;;30.50;94.30;;;;;;3600113;40;20371;-88
2021/06/17 09:57:18;;;;;;;12.10;6.75;;;30.60;93.90;;;;;;3612123;39;20136;-91
2021/06/17 09:59:47;;;;;;;7.23;5.37;;;30.40;94.30;;;;;;3594783;39;20100;-87
2021/06/17 10:02:23;;;;;;;8.38;6.70;;;31.00;94.20;;;;;;3607420;39;20050;-88
2021/06/17 10:04:50;;;;;;;9.93;6.65;;;30.80;93.10;;;;;;3607848;39;20822;-86
2021/06/17 10:07:17;;;;;;;10.15;6.63;;;30.40;93.50;;;;;;3606814;39;20281;-88
2021/06/17 10:09:47;;;;;;;11.23;6.97;;;30.30;94.00;;;;;;3597970;39;20058;-88
2021/06/17 10:12:13;;;;;;;12.32;6.75;;;30.70;93.70;;;;;;3610717;39;20050;-88
2021/06/17 10:14:41;;;;;;;9.45;8.25;;;30.80;93.00;;;;;;3600718;40;20094;-86
2021/06/17 10:17:07;;;;;;;10.18;7.60;;;30.30;93.20;;;;;;3598165;39;20035;-88
2021/06/17 10:19:33;;;;;;;17.30;8.23;;;30.90;93.80;;;;;;3587920;40;20055;-86
2021/06/17 10:22:02;;;;;;;12.85;7.70;;;31.10;92.90;;;;;;3599514;39;20052;-86
2021/06/17 10:24:30;;;;;;;12.02;8.02;;;31.10;93.10;;;;;;3595620;39;20093;-84
2021/06/17 10:26:58;;;;;;;9.68;8.48;;;30.70;93.80;;;;;;3597390;39;20048;-90
2021/06/17 10:29:27;;;;;;;10.52;9.43;;;29.90;94.90;;;;;;3606132;39;20454;-87
2021/06/17 10:31:54;;;;;;;12.02;8.57;;;29.90;95.30;;;;;;3597427;39;20128;-87
2021/06/17 10:34:23;;;;;;;8.15;7.22;;;29.70;95.70;;;;;;3606189;39;20335;-87
2021/06/17 10:37:26;;;;;;;12.45;8.23;;;29.90;95.70;;;;;;3587537;39;20393;-89
2021/06/17 10:40:10;;;;;;;8.15;7.35;;;29.70;95.10;;;;;;3607839;39;20052;-89
2021/06/17 10:42:41;;;;;;;8.77;7.97;;;30.00;94.60;;;;;;3597861;39;20043;-88
2021/06/17 10:45:09;;;;;;;9.15;7.32;;;29.90;94.90;;;;;;3594925;39;20056;-86
2021/06/17 10:47:57;;;;;;;10.20;7.75;;;30.20;95.20;;;;;;3606149;39;20369;-84
2021/06/17 10:50:29;;;;;;;12.10;7.80;;;30.60;95.00;;;;;;3596939;39;20314;-89
2021/06/17 10:53:24;;;;;;;13.60;9.07;;;30.20;95.60;;;;;;3603005;39;20047;-86
2021/06/17 10:56:10;;;;;;;11.88;9.93;;;30.50;95.40;;;;;;3599857;39;20135;-87
2021/06/17 10:58:43;;;;;;;14.05;10.00;;;31.00;94.70;;;;;;3606952;39;20084;-85
2021/06/17 11:01:22;;;;;;;13.10;8.93;;;30.70;94.60;;;;;;3599403;39;20059;-88
2021/06/17 11:04:15;;;;;;;12.55;10.93;;;30.90;95.20;;;;;;3602925;39;20237;-88
2021/06/17 11:06:48;;;;;;;11.85;9.27;;;31.00;95.30;;;;;;3590183;39;20051;-86
2021/06/17 11:09:39;;;;;;;13.70;10.10;;;31.20;94.00;;;;;;3597274;39;20328;-87
2021/06/17 11:12:17;;;;;;;10.90;8.18;;;31.40;93.70;;;;;;3606016;39;20393;-89
2021/06/17 11:14:45;;;;;;;14.00;8.30;;;30.80;93.40;;;;;;3605416;39;20405;-90
2021/06/17 11:17:38;;;;;;;10.82;6.90;;;31.10;93.90;;;;;;3590428;39;20122;-87
2021/06/17 11:20:21;;;;;;;10.05;6.72;;;31.50;93.70;;;;;;3600134;39;20055;-83
2021/06/17 11:22:58;;;;;;;11.15;7.20;;;31.50;93.90;;;;;;3594540;39;20052;-83
2021/06/17 11:25:26;;;;;;;9.55;8.50;;;31.10;94.10;;;;;;3603106;39;20057;-87
2021/06/17 11:27:58;;;;;;;10.85;8.60;;;31.00;94.30;;;;;;3588371;40;20296;-85
2021/06/17 11:30:41;;;;;;;9.93;8.68;;;31.00;94.70;;;;;;3589663;39;20056;-86
2021/06/17 11:33:17;;;;;;;8.07;6.28;;;31.00;94.90;;;;;;3595255;40;20084;-85
2021/06/17 11:35:44;;;;;;;7.55;5.22;;;31.30;94.90;;;;;;3602481;39;20051;-85
2021/06/17 11:38:11;;;;;;;9.50;6.07;;;31.20;94.30;;;;;;3605515;39;20136;-86
2021/06/17 11:40:37;;;;;;;7.32;4.85;;;30.90;94.50;;;;;;3596146;39;20057;-84
2021/06/17 11:43:03;;;;;;;8.63;5.28;;;31.40;94.00;;;;;;3587773;40;20048;-84
2021/06/17 11:45:36;;;;;;;7.03;6.05;;;31.00;94.60;;;;;;3586390;40;20051;-87
2021/06/17 11:48:06;;;;;;;7.45;5.40;;;30.90;95.10;;;;;;3605505;39;20075;-82
2021/06/17 11:50:32;;;;;;;13.90;7.20;;;30.90;95.70;;;;;;3605660;39;20043;-82
2021/06/17 11:52:58;;;;;;;13.68;6.63;;;30.80;95.90;;;;;;3596683;39;20136;-86
2021/06/17 11:55:25;;;;;;;12.32;7.85;;;30.60;96.40;;;;;;3604421;39;20095;-89
2021/06/17 11:57:52;;;;;;;11.23;6.15;;;30.50;96.70;;;;;;3589282;40;20092;-87
2021/06/17 12:00:32;;;;;;;11.27;5.43;;;31.10;96.40;;;;;;3598791;39;20059;-87
2021/06/17 12:02:58;;;;;;;11.07;5.80;;;31.40;95.00;;;;;;3589732;39;20024;-86
2021/06/17 12:05:24;;;;;;;13.00;6.88;;;31.30;95.50;;;;;;3589271;39;20040;-87
2021/06/17 12:07:51;;;;;;;10.68;7.35;;;31.40;96.60;;;;;;3610317;39;20359;-86
2021/06/17 12:10:25;;;;;;;7.20;5.85;;;31.80;96.20;;;;;;3609810;39;20048;-89
2021/06/17 12:12:56;;;;;;;7.32;5.47;;;31.40;96.30;;;;;;3584512;39;20044;-89
2021/06/17 12:15:28;;;;;;;6.00;4.97;;;31.10;95.90;;;;;;3590300;39;20064;-87
2021/06/17 12:17:59;;;;;;;6.85;6.03;;;31.20;96.20;;;;;;3596556;40;20063;-87
2021/06/17 12:20:33;;;;;;;8.43;6.28;;;30.90;96.60;;;;;;3590155;39;20165;-86
2021/06/17 12:22:59;;;;;;;10.88;6.07;;;31.10;97.10;;;;;;3597802;39;20047;-82
2021/06/17 12:25:40;;;;;;;8.88;7.00;;;31.30;96.40;;;;;;3605209;39;20040;-84
2021/06/17 12:28:08;;;;;;;12.38;7.35;;;30.70;97.00;;;;;;3604892;39;20035;-85
2021/06/17 12:30:46;;;;;;;9.85;7.78;;;30.60;96.90;;;;;;3597666;39;20043;-83
2021/06/17 12:33:20;;;;;;;12.43;6.53;;;31.00;97.00;;;;;;3592719;39;20043;-86
2021/06/17 12:36:23;;;;;;;14.90;8.15;;;31.60;96.20;;;;;;3600801;39;20055;-84
2021/06/17 12:38:48;;;;;;;13.38;9.02;;;31.00;96.80;;;;;;3604873;39;20056;-83
2021/06/17 12:41:21;;;;;;;16.20;9.30;;;30.90;97.30;;;;;;3606580;39;20051;-89
2021/06/17 12:43:50;;;;;;;16.10;10.32;;;31.00;97.70;;;;;;3605814;39;20044;-85
2021/06/17 12:46:24;;;;;;;15.02;11.82;;;31.40;97.70;;;;;;3601811;39;20044;-88
2021/06/17 12:52:04;;;;;;;10.65;8.25;;;31.60;97.60;;;;;;3596541;39;20512;-86